MOL Modern — V7VS6 — position and weather

sailwx.info

Track history (hours):
 
Tides and Currents Weather Stations Pressure Air Temp Water Temp Dewpoint Dewpoint Depression Visibility Wind Speed Wind Dir Waves Ship Positions

MOL Modern

Last reported at 2017-Jun-22 08:42 UTC. Time now 2017-Jun-22 20:41 UTC.
Position N 27°52' W 118°09'.

Length 302 m; draft 12.9 m.

Type: Ship (hazmat cat A). MMSI: 538004203.

Date/timePositionNaut miles runAvg speedWind from/ knotsBaromVisibWave heightAir tempDewpointWater temp
2017-Jun-22 08:42N 27°52' W 118°09'420.0
2017-Jun-22 08:30N 27°55' W 118°13'3320.0
2017-Jun-22 06:50N 28°14' W 118°44'720.1
2017-Jun-22 06:28N 28°19' W 118°50'920.1
2017-Jun-22 06:00N 28°24' W 118°59'1020.1
2017-Jun-22 05:30N 28°30' W 119°08'1020.2
2017-Jun-22 05:00N 28°36' W 119°18'1020.2
2017-Jun-22 04:30N 28°42' W 119°27'1020.2
2017-Jun-22 04:00N 28°48' W 119°36'1019.9
2017-Jun-22 03:30N 28°54' W 119°45'1020.0
2017-Jun-22 03:01N 28°60' W 119°55'1019.8
2017-Jun-22 02:31N 29°05' W 120°04'1019.8
2017-Jun-22 02:00N 29°11' W 120°13'1019.9
2017-Jun-22 01:30N 29°17' W 120°22'1019.8
2017-Jun-22 01:00N 29°22' W 120°32'1019.9
2017-Jun-22 00:30N 29°28' W 120°41'1019.8
2017-Jun-22 00:00N 29°34' W 120°51'1020.0
2017-Jun-21 23:29N 29°40' W 121°00'1020.1
2017-Jun-21 22:59N 29°46' W 121°10'1020.2
2017-Jun-21 22:30N 29°51' W 121°19'1020.2
2017-Jun-21 22:00N 29°57' W 121°28'1020.2
2017-Jun-21 21:30N 30°02' W 121°38'1020.3
2017-Jun-21 21:00N 30°08' W 121°48'1020.2
2017-Jun-21 20:30N 30°14' W 121°58'1020.4
2017-Jun-21 20:00N 30°19' W 122°07'1020.3
2017-Jun-21 19:30N 30°25' W 122°17'1020.1
2017-Jun-21 19:00N 30°31' W 122°27'1020.4
2017-Jun-21 18:30N 30°37' W 122°36'1020.4
2017-Jun-21 18:00N 30°42' W 122°46'1020.4
2017-Jun-21 17:30N 30°48' W 122°56'1020.1
2017-Jun-21 17:00N 30°54' W 123°06'1020.3
2017-Jun-21 16:30N 30°59' W 123°16'1020.3
2017-Jun-21 16:00N 31°05' W 123°26'1220.2
2017-Jun-21 15:23N 31°12' W 123°38'819.9
2017-Jun-21 15:00N 31°16' W 123°45'2020.0
2017-Jun-21 14:00N 31°27' W 124°05'1019.9
2017-Jun-21 13:30N 31°32' W 124°15'1019.9
2017-Jun-21 13:00N 31°38' W 124°25'1620.0
2017-Jun-21 12:14N 31°46' W 124°40'519.9
2017-Jun-21 11:59N 31°49' W 124°45'1920.2
2017-Jun-21 11:02N 31°59' W 125°04'4820.2
2017-Jun-21 08:40N 32°24' W 125°51'520.1
2017-Jun-21 08:24N 32°27' W 125°57'820.2
2017-Jun-21 08:00N 32°32' W 126°05'1020.0
2017-Jun-21 07:30N 32°37' W 126°15'1019.8
2017-Jun-21 07:00N 32°42' W 126°25'1020.1
2017-Jun-21 06:30N 32°47' W 126°35'1019.8
2017-Jun-21 06:00N 32°52' W 126°45'1019.8
2017-Jun-21 05:30N 32°58' W 126°55'1019.8
2017-Jun-21 05:00N 33°03' W 127°06'7819.7
2017-Jun-21 01:04N 33°43' W 128°25'219.6
2017-Jun-21 00:56N 33°44' W 128°28'  
Track history (hours):
 
Tides and Currents Weather Stations Pressure Air Temp Water Temp Dewpoint Dewpoint Depression Visibility Wind Speed Wind Dir Waves Ship Positions

MOL Modern

Last reported at 2017-Jun-22 08:42 UTC. Time now 2017-Jun-22 20:41 UTC.
Position N 27°52' W 118°09'.

Length 302 m; draft 12.9 m.

Type: Ship (hazmat cat A). MMSI: 538004203.

Date/timePositionNaut miles runAvg speedWind from/ knotsBaromVisibWave heightAir tempDewpointWater temp
2017-Jun-22 08:42N 27°52' W 118°09'420.0
2017-Jun-22 08:30N 27°55' W 118°13'3320.0
2017-Jun-22 06:50N 28°14' W 118°44'720.1
2017-Jun-22 06:28N 28°19' W 118°50'920.1
2017-Jun-22 06:00N 28°24' W 118°59'1020.1
2017-Jun-22 05:30N 28°30' W 119°08'1020.2
2017-Jun-22 05:00N 28°36' W 119°18'1020.2
2017-Jun-22 04:30N 28°42' W 119°27'1020.2
2017-Jun-22 04:00N 28°48' W 119°36'1019.9
2017-Jun-22 03:30N 28°54' W 119°45'1020.0
2017-Jun-22 03:01N 28°60' W 119°55'1019.8
2017-Jun-22 02:31N 29°05' W 120°04'1019.8
2017-Jun-22 02:00N 29°11' W 120°13'1019.9
2017-Jun-22 01:30N 29°17' W 120°22'1019.8
2017-Jun-22 01:00N 29°22' W 120°32'1019.9
2017-Jun-22 00:30N 29°28' W 120°41'1019.8
2017-Jun-22 00:00N 29°34' W 120°51'1020.0
2017-Jun-21 23:29N 29°40' W 121°00'1020.1
2017-Jun-21 22:59N 29°46' W 121°10'1020.2
2017-Jun-21 22:30N 29°51' W 121°19'1020.2
2017-Jun-21 22:00N 29°57' W 121°28'1020.2
2017-Jun-21 21:30N 30°02' W 121°38'1020.3
2017-Jun-21 21:00N 30°08' W 121°48'1020.2
2017-Jun-21 20:30N 30°14' W 121°58'1020.4
2017-Jun-21 20:00N 30°19' W 122°07'1020.3
2017-Jun-21 19:30N 30°25' W 122°17'1020.1
2017-Jun-21 19:00N 30°31' W 122°27'1020.4
2017-Jun-21 18:30N 30°37' W 122°36'1020.4
2017-Jun-21 18:00N 30°42' W 122°46'1020.4
2017-Jun-21 17:30N 30°48' W 122°56'1020.1
2017-Jun-21 17:00N 30°54' W 123°06'1020.3
2017-Jun-21 16:30N 30°59' W 123°16'1020.3
2017-Jun-21 16:00N 31°05' W 123°26'1220.2
2017-Jun-21 15:23N 31°12' W 123°38'819.9
2017-Jun-21 15:00N 31°16' W 123°45'2020.0
2017-Jun-21 14:00N 31°27' W 124°05'1019.9
2017-Jun-21 13:30N 31°32' W 124°15'1019.9
2017-Jun-21 13:00N 31°38' W 124°25'1620.0
2017-Jun-21 12:14N 31°46' W 124°40'519.9
2017-Jun-21 11:59N 31°49' W 124°45'1920.2
2017-Jun-21 11:02N 31°59' W 125°04'4820.2
2017-Jun-21 08:40N 32°24' W 125°51'520.1
2017-Jun-21 08:24N 32°27' W 125°57'820.2
2017-Jun-21 08:00N 32°32' W 126°05'1020.0
2017-Jun-21 07:30N 32°37' W 126°15'1019.8
2017-Jun-21 07:00N 32°42' W 126°25'1020.1
2017-Jun-21 06:30N 32°47' W 126°35'1019.8
2017-Jun-21 06:00N 32°52' W 126°45'1019.8
2017-Jun-21 05:30N 32°58' W 126°55'1019.8
2017-Jun-21 05:00N 33°03' W 127°06'7819.7
2017-Jun-21 01:04N 33°43' W 128°25'219.6
2017-Jun-21 00:56N 33°44' W 128°28'  

Dump ship's entire track history